Terminal Aerodrome Forecast
Issued by NWS

Home | Current Version | Previous Version | Text Only | Print | Product List | Glossary On
Versions: 1 2 3 4 5 6 7 8 9 10 11 12 13 14 15
252
FTUS43 KMPX 211732
TAFRNH
TAF
KRNH 211732Z 2118/2218 17013G21KT P6SM OVC015
     FM212000 17013G21KT P6SM OVC022
     FM220000 17011KT P6SM VCSH OVC025
     FM220200 20009KT 6SM SHRA OVC025
      TEMPO 2202/2204 2SM TSRA OVC012CB
     FM220400 25007KT P6SM SCT025 OVC050
     FM221300 28009KT P6SM SCT200=

USA.gov is the U.S. government's official web portal to all federal, state and local government web resources and services.